sensor_id;sensor_type;location;lat;lon;timestamp;P1;durP1;ratioP1;P2;durP2;ratioP2
50319;SDS011;36226;53.464;9.852;2023-03-24T00:00:02;7.70;;;2.45;;
50319;SDS011;36226;53.464;9.852;2023-03-24T00:02:30;6.68;;;2.97;;
50319;SDS011;36226;53.464;9.852;2023-03-24T00:05:01;6.55;;;2.33;;
50319;SDS011;36226;53.464;9.852;2023-03-24T00:07:27;5.03;;;2.20;;
50319;SDS011;36226;53.464;9.852;2023-03-24T00:09:54;4.82;;;2.20;;
50319;SDS011;36226;53.464;9.852;2023-03-24T00:12:20;5.18;;;2.25;;
50319;SDS011;36226;53.464;9.852;2023-03-24T00:14:45;5.18;;;2.00;;
50319;SDS011;36226;53.464;9.852;2023-03-24T00:17:11;6.00;;;2.20;;
50319;SDS011;36226;53.464;9.852;2023-03-24T00:19:37;4.45;;;1.90;;
50319;SDS011;36226;53.464;9.852;2023-03-24T00:22:04;4.30;;;2.00;;
50319;SDS011;36226;53.464;9.852;2023-03-24T00:24:33;3.05;;;1.88;;
50319;SDS011;36226;53.464;9.852;2023-03-24T00:26:59;4.85;;;2.17;;
50319;SDS011;36226;53.464;9.852;2023-03-24T00:29:25;4.18;;;1.80;;
50319;SDS011;36226;53.464;9.852;2023-03-24T00:41:00;6.53;;;2.15;;
50319;SDS011;36226;53.464;9.852;2023-03-24T00:43:27;4.80;;;1.95;;
50319;SDS011;36226;53.464;9.852;2023-03-24T00:45:59;6.32;;;2.28;;
50319;SDS011;36226;53.464;9.852;2023-03-24T00:48:26;5.40;;;2.30;;
50319;SDS011;36226;53.464;9.852;2023-03-24T00:50:52;8.00;;;2.40;;
50319;SDS011;36226;53.464;9.852;2023-03-24T00:53:17;4.15;;;2.42;;
50319;SDS011;36226;53.464;9.852;2023-03-24T00:55:44;6.40;;;2.20;;
50319;SDS011;36226;53.464;9.852;2023-03-24T00:58:12;7.05;;;2.35;;
50319;SDS011;36226;53.464;9.852;2023-03-24T01:00:45;6.25;;;2.33;;
50319;SDS011;36226;53.464;9.852;2023-03-24T01:03:12;7.60;;;2.20;;
50319;SDS011;36226;53.464;9.852;2023-03-24T01:05:37;7.78;;;2.47;;
50319;SDS011;36226;53.464;9.852;2023-03-24T01:08:03;7.35;;;2.60;;
50319;SDS011;36226;53.464;9.852;2023-03-24T01:10:31;4.05;;;2.05;;
50319;SDS011;36226;53.464;9.852;2023-03-24T01:12:58;10.43;;;2.90;;
50319;SDS011;36226;53.464;9.852;2023-03-24T01:15:26;5.28;;;2.50;;
50319;SDS011;36226;53.464;9.852;2023-03-24T01:17:53;5.28;;;2.40;;
50319;SDS011;36226;53.464;9.852;2023-03-24T01:20:20;8.88;;;2.28;;
50319;SDS011;36226;53.464;9.852;2023-03-24T01:22:47;7.43;;;2.65;;
50319;SDS011;36226;53.464;9.852;2023-03-24T01:25:14;6.50;;;2.55;;
50319;SDS011;36226;53.464;9.852;2023-03-24T01:27:45;5.85;;;2.60;;
50319;SDS011;36226;53.464;9.852;2023-03-24T01:30:11;6.60;;;2.50;;
50319;SDS011;36226;53.464;9.852;2023-03-24T01:32:38;7.70;;;3.17;;
50319;SDS011;36226;53.464;9.852;2023-03-24T01:35:04;8.45;;;2.58;;
50319;SDS011;36226;53.464;9.852;2023-03-24T01:37:30;5.53;;;2.35;;
50319;SDS011;36226;53.464;9.852;2023-03-24T01:39:55;5.20;;;2.40;;
50319;SDS011;36226;53.464;9.852;2023-03-24T01:42:22;7.15;;;2.35;;
50319;SDS011;36226;53.464;9.852;2023-03-24T01:44:49;5.50;;;2.60;;
50319;SDS011;36226;53.464;9.852;2023-03-24T01:47:16;4.22;;;2.35;;
50319;SDS011;36226;53.464;9.852;2023-03-24T01:49:45;8.00;;;2.65;;
50319;SDS011;36226;53.464;9.852;2023-03-24T01:52:16;5.97;;;2.50;;
50319;SDS011;36226;53.464;9.852;2023-03-24T01:54:52;5.68;;;2.55;;
50319;SDS011;36226;53.464;9.852;2023-03-24T01:59:50;8.20;;;2.72;;
50319;SDS011;36226;53.464;9.852;2023-03-24T03:30:14;6.82;;;3.17;;
50319;SDS011;36226;53.464;9.852;2023-03-24T03:32:47;7.55;;;3.40;;
50319;SDS011;36226;53.464;9.852;2023-03-24T03:35:22;4.53;;;3.00;;
50319;SDS011;36226;53.464;9.852;2023-03-24T03:41:02;4.28;;;3.10;;
50319;SDS011;36226;53.464;9.852;2023-03-24T03:43:29;7.15;;;3.53;;
50319;SDS011;36226;53.464;9.852;2023-03-24T03:45:55;5.97;;;3.03;;
50319;SDS011;36226;53.464;9.852;2023-03-24T03:48:22;8.07;;;3.50;;
50319;SDS011;36226;53.464;9.852;2023-03-24T04:02:58;4.72;;;3.38;;
50319;SDS011;36226;53.464;9.852;2023-03-24T04:08:54;7.82;;;3.60;;
50319;SDS011;36226;53.464;9.852;2023-03-24T04:11:31;6.05;;;3.67;;
50319;SDS011;36226;53.464;9.852;2023-03-24T04:14:49;6.53;;;3.40;;
50319;SDS011;36226;53.464;9.852;2023-03-24T04:20:13;5.25;;;3.25;;
50319;SDS011;36226;53.464;9.852;2023-03-24T04:25:31;6.95;;;3.15;;
50319;SDS011;36226;53.464;9.852;2023-03-24T04:28:08;7.97;;;3.30;;
50319;SDS011;36226;53.464;9.852;2023-03-24T04:30:54;6.07;;;3.45;;
50319;SDS011;36226;53.464;9.852;2023-03-24T04:33:31;5.82;;;3.30;;
50319;SDS011;36226;53.464;9.852;2023-03-24T04:36:59;5.13;;;3.50;;
50319;SDS011;36226;53.464;9.852;2023-03-24T04:39:12;4.88;;;3.60;;
50319;SDS011;36226;53.464;9.852;2023-03-24T04:41:41;5.47;;;3.15;;
50319;SDS011;36226;53.464;9.852;2023-03-24T04:44:07;5.28;;;3.05;;
50319;SDS011;36226;53.464;9.852;2023-03-24T04:46:34;8.63;;;3.80;;
50319;SDS011;36226;53.464;9.852;2023-03-24T04:49:00;4.68;;;3.65;;
50319;SDS011;36226;53.464;9.852;2023-03-24T04:51:27;5.05;;;3.22;;
50319;SDS011;36226;53.464;9.852;2023-03-24T04:53:53;5.25;;;3.30;;
50319;SDS011;36226;53.464;9.852;2023-03-24T04:56:26;7.03;;;3.58;;
50319;SDS011;36226;53.464;9.852;2023-03-24T04:58:54;5.30;;;3.65;;
50319;SDS011;36226;53.464;9.852;2023-03-24T05:01:20;6.88;;;3.90;;
50319;SDS011;36226;53.464;9.852;2023-03-24T05:03:46;6.88;;;3.67;;
50319;SDS011;36226;53.464;9.852;2023-03-24T05:06:13;4.60;;;3.28;;
50319;SDS011;36226;53.464;9.852;2023-03-24T05:08:38;6.78;;;3.80;;
50319;SDS011;36226;53.464;9.852;2023-03-24T05:11:07;5.75;;;3.22;;
50319;SDS011;36226;53.464;9.852;2023-03-24T05:13:32;5.45;;;3.30;;
50319;SDS011;36226;53.464;9.852;2023-03-24T05:15:58;4.13;;;3.00;;
50319;SDS011;36226;53.464;9.852;2023-03-24T05:18:23;6.05;;;3.05;;
50319;SDS011;36226;53.464;9.852;2023-03-24T05:20:49;7.78;;;3.22;;
50319;SDS011;36226;53.464;9.852;2023-03-24T05:23:15;6.63;;;3.70;;
50319;SDS011;36226;53.464;9.852;2023-03-24T05:25:40;7.25;;;3.50;;
50319;SDS011;36226;53.464;9.852;2023-03-24T05:28:06;4.22;;;3.15;;
50319;SDS011;36226;53.464;9.852;2023-03-24T05:30:34;4.20;;;3.15;;
50319;SDS011;36226;53.464;9.852;2023-03-24T05:33:02;5.95;;;3.60;;
50319;SDS011;36226;53.464;9.852;2023-03-24T05:35:28;5.22;;;3.13;;
50319;SDS011;36226;53.464;9.852;2023-03-24T05:37:54;6.75;;;3.70;;
50319;SDS011;36226;53.464;9.852;2023-03-24T05:40:19;5.00;;;3.40;;
50319;SDS011;36226;53.464;9.852;2023-03-24T05:42:47;5.40;;;3.75;;
50319;SDS011;36226;53.464;9.852;2023-03-24T05:45:13;5.28;;;3.33;;
50319;SDS011;36226;53.464;9.852;2023-03-24T05:47:38;5.50;;;3.47;;
50319;SDS011;36226;53.464;9.852;2023-03-24T05:50:04;5.05;;;3.20;;
50319;SDS011;36226;53.464;9.852;2023-03-24T05:52:30;5.90;;;3.40;;
50319;SDS011;36226;53.464;9.852;2023-03-24T05:54:55;7.28;;;3.60;;
50319;SDS011;36226;53.464;9.852;2023-03-24T05:57:21;7.82;;;3.40;;
50319;SDS011;36226;53.464;9.852;2023-03-24T05:59:46;5.32;;;3.00;;
50319;SDS011;36226;53.464;9.852;2023-03-24T06:02:11;6.68;;;3.13;;
50319;SDS011;36226;53.464;9.852;2023-03-24T06:04:37;5.40;;;3.20;;
50319;SDS011;36226;53.464;9.852;2023-03-24T06:07:02;5.55;;;3.53;;
50319;SDS011;36226;53.464;9.852;2023-03-24T06:09:28;4.25;;;2.85;;
50319;SDS011;36226;53.464;9.852;2023-03-24T06:11:57;5.38;;;3.10;;
50319;SDS011;36226;53.464;9.852;2023-03-24T06:14:23;3.65;;;3.00;;
50319;SDS011;36226;53.464;9.852;2023-03-24T06:16:48;4.75;;;2.95;;
50319;SDS011;36226;53.464;9.852;2023-03-24T06:19:16;4.47;;;2.60;;
50319;SDS011;36226;53.464;9.852;2023-03-24T06:21:46;3.75;;;2.85;;
50319;SDS011;36226;53.464;9.852;2023-03-24T06:24:14;4.88;;;3.00;;
50319;SDS011;36226;53.464;9.852;2023-03-24T06:26:41;5.53;;;2.75;;
50319;SDS011;36226;53.464;9.852;2023-03-24T06:29:08;3.88;;;2.92;;
50319;SDS011;36226;53.464;9.852;2023-03-24T06:31:34;4.38;;;3.20;;
50319;SDS011;36226;53.464;9.852;2023-03-24T06:34:01;3.50;;;2.83;;
50319;SDS011;36226;53.464;9.852;2023-03-24T06:36:27;4.85;;;2.92;;
50319;SDS011;36226;53.464;9.852;2023-03-24T06:38:54;4.85;;;3.10;;
50319;SDS011;36226;53.464;9.852;2023-03-24T06:41:20;5.10;;;3.17;;
50319;SDS011;36226;53.464;9.852;2023-03-24T06:43:46;4.07;;;3.00;;
50319;SDS011;36226;53.464;9.852;2023-03-24T06:46:11;3.85;;;2.90;;
50319;SDS011;36226;53.464;9.852;2023-03-24T06:48:36;3.47;;;2.92;;
50319;SDS011;36226;53.464;9.852;2023-03-24T06:51:03;4.93;;;3.10;;
50319;SDS011;36226;53.464;9.852;2023-03-24T06:53:28;3.78;;;3.10;;
50319;SDS011;36226;53.464;9.852;2023-03-24T06:55:54;3.97;;;3.03;;
50319;SDS011;36226;53.464;9.852;2023-03-24T06:58:20;4.28;;;2.80;;
50319;SDS011;36226;53.464;9.852;2023-03-24T07:00:45;5.55;;;2.95;;
50319;SDS011;36226;53.464;9.852;2023-03-24T07:03:11;4.68;;;2.80;;
50319;SDS011;36226;53.464;9.852;2023-03-24T07:05:38;3.08;;;2.63;;
50319;SDS011;36226;53.464;9.852;2023-03-24T07:08:04;2.92;;;2.30;;
50319;SDS011;36226;53.464;9.852;2023-03-24T07:10:29;3.22;;;2.00;;
50319;SDS011;36226;53.464;9.852;2023-03-24T07:12:55;4.03;;;2.00;;
50319;SDS011;36226;53.464;9.852;2023-03-24T07:15:21;2.38;;;1.90;;
50319;SDS011;36226;53.464;9.852;2023-03-24T07:17:47;3.83;;;2.42;;
50319;SDS011;36226;53.464;9.852;2023-03-24T07:20:12;3.80;;;2.28;;
50319;SDS011;36226;53.464;9.852;2023-03-24T07:22:38;4.50;;;1.98;;
50319;SDS011;36226;53.464;9.852;2023-03-24T07:25:03;2.85;;;1.80;;
50319;SDS011;36226;53.464;9.852;2023-03-24T07:27:30;2.17;;;1.50;;
50319;SDS011;36226;53.464;9.852;2023-03-24T07:29:59;2.70;;;1.50;;
50319;SDS011;36226;53.464;9.852;2023-03-24T07:32:27;3.05;;;1.40;;
50319;SDS011;36226;53.464;9.852;2023-03-24T07:34:53;4.50;;;1.20;;
50319;SDS011;36226;53.464;9.852;2023-03-24T07:37:19;2.17;;;1.35;;
50319;SDS011;36226;53.464;9.852;2023-03-24T07:39:45;2.78;;;1.60;;
50319;SDS011;36226;53.464;9.852;2023-03-24T07:42:11;2.90;;;1.60;;
50319;SDS011;36226;53.464;9.852;2023-03-24T07:47:05;5.25;;;1.60;;
50319;SDS011;36226;53.464;9.852;2023-03-24T07:49:30;3.65;;;1.13;;
50319;SDS011;36226;53.464;9.852;2023-03-24T07:51:55;4.85;;;0.90;;
50319;SDS011;36226;53.464;9.852;2023-03-24T07:54:22;5.00;;;1.10;;
50319;SDS011;36226;53.464;9.852;2023-03-24T07:56:48;11.80;;;1.30;;
50319;SDS011;36226;53.464;9.852;2023-03-24T07:59:14;7.43;;;1.05;;
50319;SDS011;36226;53.464;9.852;2023-03-24T08:01:41;4.82;;;0.95;;
50319;SDS011;36226;53.464;9.852;2023-03-24T08:04:08;3.22;;;1.00;;
50319;SDS011;36226;53.464;9.852;2023-03-24T08:06:36;4.60;;;1.05;;
50319;SDS011;36226;53.464;9.852;2023-03-24T08:09:01;3.38;;;0.80;;
50319;SDS011;36226;53.464;9.852;2023-03-24T08:11:26;3.08;;;1.05;;
50319;SDS011;36226;53.464;9.852;2023-03-24T08:13:52;3.10;;;0.90;;
50319;SDS011;36226;53.464;9.852;2023-03-24T08:16:17;4.45;;;1.05;;
50319;SDS011;36226;53.464;9.852;2023-03-24T08:18:42;4.07;;;0.90;;
50319;SDS011;36226;53.464;9.852;2023-03-24T08:21:08;3.95;;;1.00;;
50319;SDS011;36226;53.464;9.852;2023-03-24T08:23:33;5.28;;;0.95;;
50319;SDS011;36226;53.464;9.852;2023-03-24T08:26:00;5.00;;;1.15;;
50319;SDS011;36226;53.464;9.852;2023-03-24T08:28:26;2.65;;;0.70;;
50319;SDS011;36226;53.464;9.852;2023-03-24T08:30:52;3.67;;;0.60;;
50319;SDS011;36226;53.464;9.852;2023-03-24T08:33:17;3.67;;;0.80;;
50319;SDS011;36226;53.464;9.852;2023-03-24T08:35:42;3.90;;;0.90;;
50319;SDS011;36226;53.464;9.852;2023-03-24T08:38:10;3.33;;;0.80;;
50319;SDS011;36226;53.464;9.852;2023-03-24T08:40:36;2.42;;;0.90;;
50319;SDS011;36226;53.464;9.852;2023-03-24T08:43:05;3.28;;;0.88;;
50319;SDS011;36226;53.464;9.852;2023-03-24T08:45:32;4.90;;;0.80;;
50319;SDS011;36226;53.464;9.852;2023-03-24T08:47:59;4.85;;;1.05;;
50319;SDS011;36226;53.464;9.852;2023-03-24T08:50:27;3.08;;;0.90;;
50319;SDS011;36226;53.464;9.852;2023-03-24T08:52:55;5.10;;;0.80;;
50319;SDS011;36226;53.464;9.852;2023-03-24T08:55:21;3.53;;;1.05;;
50319;SDS011;36226;53.464;9.852;2023-03-24T08:57:47;4.18;;;0.80;;
50319;SDS011;36226;53.464;9.852;2023-03-24T09:00:13;7.63;;;1.00;;
50319;SDS011;36226;53.464;9.852;2023-03-24T09:02:49;4.18;;;0.93;;
50319;SDS011;36226;53.464;9.852;2023-03-24T09:05:16;3.72;;;0.90;;
50319;SDS011;36226;53.464;9.852;2023-03-24T09:07:43;6.28;;;1.52;;
50319;SDS011;36226;53.464;9.852;2023-03-24T09:10:09;7.25;;;1.17;;
50319;SDS011;36226;53.464;9.852;2023-03-24T09:12:36;5.10;;;1.10;;
50319;SDS011;36226;53.464;9.852;2023-03-24T09:15:02;4.03;;;0.93;;
50319;SDS011;36226;53.464;9.852;2023-03-24T09:17:29;5.22;;;1.00;;
50319;SDS011;36226;53.464;9.852;2023-03-24T09:19:55;5.20;;;0.95;;
50319;SDS011;36226;53.464;9.852;2023-03-24T09:22:20;3.15;;;1.30;;
50319;SDS011;36226;53.464;9.852;2023-03-24T09:24:45;6.15;;;1.13;;
50319;SDS011;36226;53.464;9.852;2023-03-24T09:27:13;6.80;;;1.25;;
50319;SDS011;36226;53.464;9.852;2023-03-24T09:29:39;7.32;;;0.98;;
50319;SDS011;36226;53.464;9.852;2023-03-24T09:32:04;9.98;;;1.55;;
50319;SDS011;36226;53.464;9.852;2023-03-24T09:34:30;8.77;;;1.70;;
50319;SDS011;36226;53.464;9.852;2023-03-24T09:36:59;5.35;;;1.13;;
50319;SDS011;36226;53.464;9.852;2023-03-24T09:39:25;9.77;;;1.33;;
50319;SDS011;36226;53.464;9.852;2023-03-24T09:41:51;7.03;;;1.20;;
50319;SDS011;36226;53.464;9.852;2023-03-24T09:44:27;5.82;;;1.27;;
50319;SDS011;36226;53.464;9.852;2023-03-24T09:46:56;6.32;;;1.20;;
50319;SDS011;36226;53.464;9.852;2023-03-24T09:49:47;13.57;;;1.40;;
50319;SDS011;36226;53.464;9.852;2023-03-24T09:52:13;5.07;;;0.95;;
50319;SDS011;36226;53.464;9.852;2023-03-24T09:54:55;6.50;;;1.00;;
50319;SDS011;36226;53.464;9.852;2023-03-24T10:00:01;7.22;;;1.75;;
50319;SDS011;36226;53.464;9.852;2023-03-24T10:02:32;6.18;;;1.02;;
50319;SDS011;36226;53.464;9.852;2023-03-24T10:04:57;7.53;;;1.35;;
50319;SDS011;36226;53.464;9.852;2023-03-24T10:07:42;8.30;;;1.02;;
50319;SDS011;36226;53.464;9.852;2023-03-24T10:10:58;11.40;;;1.30;;
50319;SDS011;36226;53.464;9.852;2023-03-24T10:13:06;5.03;;;0.90;;
50319;SDS011;36226;53.464;9.852;2023-03-24T10:15:42;8.48;;;1.20;;
50319;SDS011;36226;53.464;9.852;2023-03-24T10:20:55;5.10;;;1.35;;
50319;SDS011;36226;53.464;9.852;2023-03-24T10:31:30;7.57;;;0.93;;
50319;SDS011;36226;53.464;9.852;2023-03-24T10:33:56;6.25;;;0.93;;
50319;SDS011;36226;53.464;9.852;2023-03-24T10:36:22;6.65;;;1.00;;
50319;SDS011;36226;53.464;9.852;2023-03-24T10:38:49;7.75;;;1.15;;
50319;SDS011;36226;53.464;9.852;2023-03-24T10:41:21;8.82;;;1.35;;
50319;SDS011;36226;53.464;9.852;2023-03-24T10:43:49;7.97;;;0.95;;
50319;SDS011;36226;53.464;9.852;2023-03-24T10:46:17;5.97;;;0.93;;
50319;SDS011;36226;53.464;9.852;2023-03-24T10:48:47;4.40;;;1.15;;
50319;SDS011;36226;53.464;9.852;2023-03-24T10:51:35;6.63;;;1.10;;
50319;SDS011;36226;53.464;9.852;2023-03-24T10:54:17;9.15;;;1.10;;
50319;SDS011;36226;53.464;9.852;2023-03-24T10:56:48;4.88;;;1.00;;
50319;SDS011;36226;53.464;9.852;2023-03-24T11:01:46;5.93;;;0.93;;
50319;SDS011;36226;53.464;9.852;2023-03-24T11:04:13;7.05;;;1.17;;
50319;SDS011;36226;53.464;9.852;2023-03-24T11:06:51;4.55;;;1.00;;
50319;SDS011;36226;53.464;9.852;2023-03-24T11:09:19;6.97;;;1.10;;
50319;SDS011;36226;53.464;9.852;2023-03-24T11:11:46;5.05;;;1.85;;
50319;SDS011;36226;53.464;9.852;2023-03-24T11:14:22;7.13;;;1.27;;
50319;SDS011;36226;53.464;9.852;2023-03-24T11:16:49;5.80;;;1.13;;
50319;SDS011;36226;53.464;9.852;2023-03-24T11:19:20;5.35;;;1.20;;
50319;SDS011;36226;53.464;9.852;2023-03-24T11:21:47;6.68;;;1.00;;
50319;SDS011;36226;53.464;9.852;2023-03-24T11:24:15;5.20;;;0.90;;
50319;SDS011;36226;53.464;9.852;2023-03-24T11:26:58;5.72;;;1.08;;
50319;SDS011;36226;53.464;9.852;2023-03-24T11:29:25;8.77;;;1.10;;
50319;SDS011;36226;53.464;9.852;2023-03-24T11:31:57;4.68;;;0.85;;
50319;SDS011;36226;53.464;9.852;2023-03-24T11:34:27;8.43;;;1.60;;
50319;SDS011;36226;53.464;9.852;2023-03-24T11:37:03;6.30;;;0.85;;
50319;SDS011;36226;53.464;9.852;2023-03-24T11:39:31;6.50;;;1.20;;
50319;SDS011;36226;53.464;9.852;2023-03-24T11:52:43;8.98;;;1.50;;
50319;SDS011;36226;53.464;9.852;2023-03-24T12:00:49;7.15;;;1.15;;
50319;SDS011;36226;53.464;9.852;2023-03-24T12:06:16;6.50;;;1.48;;
50319;SDS011;36226;53.464;9.852;2023-03-24T12:14:21;5.30;;;1.00;;
50319;SDS011;36226;53.464;9.852;2023-03-24T12:16:55;6.40;;;1.17;;
50319;SDS011;36226;53.464;9.852;2023-03-24T12:57:29;7.75;;;1.95;;
50319;SDS011;36226;53.464;9.852;2023-03-24T13:00:05;5.38;;;1.20;;
50319;SDS011;36226;53.464;9.852;2023-03-24T13:03:11;10.38;;;1.52;;
50319;SDS011;36226;53.464;9.852;2023-03-24T13:05:57;8.98;;;1.65;;
50319;SDS011;36226;53.464;9.852;2023-03-24T13:08:23;7.35;;;1.42;;
50319;SDS011;36226;53.464;9.852;2023-03-24T13:11:00;8.02;;;1.63;;
50319;SDS011;36226;53.464;9.852;2023-03-24T13:13:35;6.75;;;1.45;;
50319;SDS011;36226;53.464;9.852;2023-03-24T13:16:03;5.93;;;1.30;;
50319;SDS011;36226;53.464;9.852;2023-03-24T13:18:41;5.20;;;1.50;;
50319;SDS011;36226;53.464;9.852;2023-03-24T13:21:09;11.07;;;1.70;;
50319;SDS011;36226;53.464;9.852;2023-03-24T13:23:39;6.60;;;1.40;;
50319;SDS011;36226;53.464;9.852;2023-03-24T13:31:51;9.50;;;1.30;;
50319;SDS011;36226;53.464;9.852;2023-03-24T13:36:48;6.50;;;1.00;;
50319;SDS011;36226;53.464;9.852;2023-03-24T13:39:16;5.90;;;1.00;;
50319;SDS011;36226;53.464;9.852;2023-03-24T13:41:50;5.38;;;1.05;;
50319;SDS011;36226;53.464;9.852;2023-03-24T13:46:43;8.57;;;1.65;;
50319;SDS011;36226;53.464;9.852;2023-03-24T13:49:59;5.45;;;1.17;;
50319;SDS011;36226;53.464;9.852;2023-03-24T13:52:33;3.17;;;0.90;;
50319;SDS011;36226;53.464;9.852;2023-03-24T13:55:00;4.80;;;1.00;;
50319;SDS011;36226;53.464;9.852;2023-03-24T13:57:27;5.90;;;1.15;;
50319;SDS011;36226;53.464;9.852;2023-03-24T14:05:31;6.05;;;0.82;;
50319;SDS011;36226;53.464;9.852;2023-03-24T14:08:32;2.58;;;0.80;;
50319;SDS011;36226;53.464;9.852;2023-03-24T14:11:04;8.30;;;1.00;;
50319;SDS011;36226;53.464;9.852;2023-03-24T14:13:33;4.25;;;1.00;;
50319;SDS011;36226;53.464;9.852;2023-03-24T14:16:00;4.07;;;0.90;;
50319;SDS011;36226;53.464;9.852;2023-03-24T14:22:12;3.58;;;0.70;;
50319;SDS011;36226;53.464;9.852;2023-03-24T14:29:58;8.77;;;0.93;;
50319;SDS011;36226;53.464;9.852;2023-03-24T14:32:25;4.18;;;0.90;;
50319;SDS011;36226;53.464;9.852;2023-03-24T14:34:54;5.60;;;1.10;;
50319;SDS011;36226;53.464;9.852;2023-03-24T14:37:21;5.35;;;0.80;;
50319;SDS011;36226;53.464;9.852;2023-03-24T14:39:47;2.20;;;0.63;;
50319;SDS011;36226;53.464;9.852;2023-03-24T14:42:27;5.00;;;1.10;;
50319;SDS011;36226;53.464;9.852;2023-03-24T14:47:32;4.97;;;0.73;;
50319;SDS011;36226;53.464;9.852;2023-03-24T14:50:09;4.75;;;0.70;;
50319;SDS011;36226;53.464;9.852;2023-03-24T14:52:41;3.63;;;0.98;;
50319;SDS011;36226;53.464;9.852;2023-03-24T14:55:10;3.83;;;0.80;;
50319;SDS011;36226;53.464;9.852;2023-03-24T14:57:41;3.63;;;0.90;;
50319;SDS011;36226;53.464;9.852;2023-03-24T15:02:46;5.50;;;0.75;;
50319;SDS011;36226;53.464;9.852;2023-03-24T15:05:14;4.90;;;0.77;;
50319;SDS011;36226;53.464;9.852;2023-03-24T15:10:46;6.25;;;1.25;;
50319;SDS011;36226;53.464;9.852;2023-03-24T15:21:59;6.22;;;1.00;;
50319;SDS011;36226;53.464;9.852;2023-03-24T15:29:33;4.13;;;0.80;;
50319;SDS011;36226;53.464;9.852;2023-03-24T15:31:58;5.80;;;1.02;;
50319;SDS011;36226;53.464;9.852;2023-03-24T15:36:56;5.78;;;0.85;;
50319;SDS011;36226;53.464;9.852;2023-03-24T15:39:34;7.93;;;1.42;;
50319;SDS011;36226;53.464;9.852;2023-03-24T15:42:03;3.83;;;0.90;;
50319;SDS011;36226;53.464;9.852;2023-03-24T15:44:30;5.05;;;1.30;;
50319;SDS011;36226;53.464;9.852;2023-03-24T15:46:58;4.32;;;0.70;;
50319;SDS011;36226;53.464;9.852;2023-03-24T15:49:25;8.15;;;1.00;;
50319;SDS011;36226;53.464;9.852;2023-03-24T15:54:22;5.75;;;0.93;;
50319;SDS011;36226;53.464;9.852;2023-03-24T15:59:42;10.27;;;1.15;;
50319;SDS011;36226;53.464;9.852;2023-03-24T16:02:25;5.07;;;1.15;;
50319;SDS011;36226;53.464;9.852;2023-03-24T16:04:55;3.88;;;1.10;;
50319;SDS011;36226;53.464;9.852;2023-03-24T16:07:24;7.95;;;1.08;;
50319;SDS011;36226;53.464;9.852;2023-03-24T16:09:56;4.43;;;0.85;;
50319;SDS011;36226;53.464;9.852;2023-03-24T16:12:23;8.00;;;1.30;;
50319;SDS011;36226;53.464;9.852;2023-03-24T16:14:48;5.57;;;1.17;;
50319;SDS011;36226;53.464;9.852;2023-03-24T16:17:14;8.98;;;1.50;;
50319;SDS011;36226;53.464;9.852;2023-03-24T16:19:39;5.00;;;1.10;;
50319;SDS011;36226;53.464;9.852;2023-03-24T16:22:09;6.22;;;1.20;;
50319;SDS011;36226;53.464;9.852;2023-03-24T16:24:35;4.63;;;1.13;;
50319;SDS011;36226;53.464;9.852;2023-03-24T16:37:42;3.65;;;1.02;;
50319;SDS011;36226;53.464;9.852;2023-03-24T16:40:49;7.20;;;1.23;;
50319;SDS011;36226;53.464;9.852;2023-03-24T16:42:59;3.80;;;1.00;;
50319;SDS011;36226;53.464;9.852;2023-03-24T16:45:26;6.85;;;1.42;;
50319;SDS011;36226;53.464;9.852;2023-03-24T16:47:53;7.32;;;1.20;;
50319;SDS011;36226;53.464;9.852;2023-03-24T16:50:26;5.32;;;1.20;;
50319;SDS011;36226;53.464;9.852;2023-03-24T16:52:56;9.23;;;1.50;;
50319;SDS011;36226;53.464;9.852;2023-03-24T16:55:22;6.40;;;1.10;;
50319;SDS011;36226;53.464;9.852;2023-03-24T16:57:47;5.32;;;1.00;;
50319;SDS011;36226;53.464;9.852;2023-03-24T17:00:13;7.20;;;1.33;;
50319;SDS011;36226;53.464;9.852;2023-03-24T17:02:38;5.25;;;1.33;;
50319;SDS011;36226;53.464;9.852;2023-03-24T17:07:41;6.18;;;1.40;;
50319;SDS011;36226;53.464;9.852;2023-03-24T17:10:07;5.80;;;0.95;;
50319;SDS011;36226;53.464;9.852;2023-03-24T17:12:32;4.57;;;1.15;;
50319;SDS011;36226;53.464;9.852;2023-03-24T17:14:58;7.40;;;1.52;;
50319;SDS011;36226;53.464;9.852;2023-03-24T17:17:23;3.47;;;1.50;;
50319;SDS011;36226;53.464;9.852;2023-03-24T17:19:48;3.38;;;1.00;;
50319;SDS011;36226;53.464;9.852;2023-03-24T17:22:14;3.75;;;1.30;;
50319;SDS011;36226;53.464;9.852;2023-03-24T17:24:42;5.72;;;1.20;;
50319;SDS011;36226;53.464;9.852;2023-03-24T17:27:09;4.43;;;1.20;;
50319;SDS011;36226;53.464;9.852;2023-03-24T17:29:36;3.28;;;1.25;;
50319;SDS011;36226;53.464;9.852;2023-03-24T17:32:02;5.57;;;1.17;;
50319;SDS011;36226;53.464;9.852;2023-03-24T17:34:27;8.25;;;1.10;;
50319;SDS011;36226;53.464;9.852;2023-03-24T17:49:48;5.18;;;1.00;;
50319;SDS011;36226;53.464;9.852;2023-03-24T17:52:14;7.35;;;1.08;;
50319;SDS011;36226;53.464;9.852;2023-03-24T17:54:39;4.60;;;0.90;;
50319;SDS011;36226;53.464;9.852;2023-03-24T17:57:13;3.92;;;1.17;;
50319;SDS011;36226;53.464;9.852;2023-03-24T17:59:45;3.42;;;0.90;;
50319;SDS011;36226;53.464;9.852;2023-03-24T18:02:11;4.15;;;0.90;;
50319;SDS011;36226;53.464;9.852;2023-03-24T18:04:37;3.30;;;0.98;;
50319;SDS011;36226;53.464;9.852;2023-03-24T18:17:23;4.85;;;1.00;;
50319;SDS011;36226;53.464;9.852;2023-03-24T18:19:48;3.22;;;0.93;;
50319;SDS011;36226;53.464;9.852;2023-03-24T18:22:15;1.88;;;0.90;;
50319;SDS011;36226;53.464;9.852;2023-03-24T18:24:40;2.88;;;0.88;;
50319;SDS011;36226;53.464;9.852;2023-03-24T18:27:06;3.88;;;1.10;;
50319;SDS011;36226;53.464;9.852;2023-03-24T18:29:34;3.92;;;1.30;;
50319;SDS011;36226;53.464;9.852;2023-03-24T18:32:04;4.47;;;1.30;;
50319;SDS011;36226;53.464;9.852;2023-03-24T18:34:30;4.07;;;1.50;;
50319;SDS011;36226;53.464;9.852;2023-03-24T18:36:56;4.25;;;1.00;;
50319;SDS011;36226;53.464;9.852;2023-03-24T18:39:22;4.65;;;1.20;;
50319;SDS011;36226;53.464;9.852;2023-03-24T18:41:47;4.60;;;1.40;;
50319;SDS011;36226;53.464;9.852;2023-03-24T18:44:13;3.78;;;0.95;;
50319;SDS011;36226;53.464;9.852;2023-03-24T18:46:39;2.58;;;0.90;;
50319;SDS011;36226;53.464;9.852;2023-03-24T18:49:05;3.70;;;1.13;;
50319;SDS011;36226;53.464;9.852;2023-03-24T18:51:31;6.68;;;1.45;;
50319;SDS011;36226;53.464;9.852;2023-03-24T18:53:57;6.53;;;1.40;;
50319;SDS011;36226;53.464;9.852;2023-03-24T18:56:22;3.22;;;1.00;;
50319;SDS011;36226;53.464;9.852;2023-03-24T18:58:48;5.38;;;1.13;;
50319;SDS011;36226;53.464;9.852;2023-03-24T19:01:15;2.20;;;0.88;;
50319;SDS011;36226;53.464;9.852;2023-03-24T19:03:47;4.55;;;1.10;;
50319;SDS011;36226;53.464;9.852;2023-03-24T19:06:13;1.58;;;0.90;;
50319;SDS011;36226;53.464;9.852;2023-03-24T19:08:40;2.72;;;1.17;;
50319;SDS011;36226;53.464;9.852;2023-03-24T19:11:09;5.20;;;1.15;;
50319;SDS011;36226;53.464;9.852;2023-03-24T19:13:35;3.55;;;0.82;;
50319;SDS011;36226;53.464;9.852;2023-03-24T19:18:36;4.38;;;0.98;;
50319;SDS011;36226;53.464;9.852;2023-03-24T19:21:02;3.13;;;1.00;;
50319;SDS011;36226;53.464;9.852;2023-03-24T19:23:27;2.00;;;0.90;;
50319;SDS011;36226;53.464;9.852;2023-03-24T19:25:53;2.38;;;0.80;;
50319;SDS011;36226;53.464;9.852;2023-03-24T19:28:20;2.33;;;1.02;;
50319;SDS011;36226;53.464;9.852;2023-03-24T19:30:56;3.30;;;0.90;;
50319;SDS011;36226;53.464;9.852;2023-03-24T19:33:23;3.60;;;1.10;;
50319;SDS011;36226;53.464;9.852;2023-03-24T19:38:24;2.85;;;1.10;;
50319;SDS011;36226;53.464;9.852;2023-03-24T19:40:50;1.98;;;0.77;;
50319;SDS011;36226;53.464;9.852;2023-03-24T19:43:16;2.83;;;1.00;;
50319;SDS011;36226;53.464;9.852;2023-03-24T19:45:42;3.88;;;1.02;;
50319;SDS011;36226;53.464;9.852;2023-03-24T19:48:12;2.20;;;0.85;;
50319;SDS011;36226;53.464;9.852;2023-03-24T19:50:37;5.00;;;0.90;;
50319;SDS011;36226;53.464;9.852;2023-03-24T19:53:02;2.83;;;0.77;;
50319;SDS011;36226;53.464;9.852;2023-03-24T20:12:35;1.77;;;1.00;;
50319;SDS011;36226;53.464;9.852;2023-03-24T20:15:00;2.25;;;0.80;;